sensor_id;sensor_type;location;lat;lon;timestamp;pressure;altitude;pressure_sealevel;temperature;humidity
44926;BME280;30662;51.210;7.656;2023-02-01T00:02:00;149599.88;;;3.15;100.00
44926;BME280;30662;51.210;7.656;2023-02-01T00:04:26;149626.31;;;3.25;100.00
44926;BME280;30662;51.210;7.656;2023-02-01T00:06:52;149599.88;;;3.15;100.00
44926;BME280;30662;51.210;7.656;2023-02-01T00:09:18;149603.66;;;3.16;100.00
44926;BME280;30662;51.210;7.656;2023-02-01T00:11:44;149611.22;;;3.19;100.00
44926;BME280;30662;51.210;7.656;2023-02-01T00:14:10;149599.88;;;3.15;100.00
44926;BME280;30662;51.210;7.656;2023-02-01T00:16:36;149549.53;;;2.94;100.00
44926;BME280;30662;51.210;7.656;2023-02-01T00:19:05;149538.22;;;2.90;100.00
44926;BME280;30662;51.210;7.656;2023-02-01T00:21:32;149568.41;;;3.02;100.00
44926;BME280;30662;51.210;7.656;2023-02-01T00:23:58;149540.75;;;2.91;100.00
44926;BME280;30662;51.210;7.656;2023-02-01T00:26:30;149572.16;;;3.03;100.00
44926;BME280;30662;51.210;7.656;2023-02-01T00:28:56;149589.78;;;3.11;100.00
44926;BME280;30662;51.210;7.656;2023-02-01T00:31:22;149592.34;;;3.12;100.00
44926;BME280;30662;51.210;7.656;2023-02-01T00:33:49;149565.91;;;3.01;100.00
44926;BME280;30662;51.210;7.656;2023-02-01T00:36:15;149588.53;;;3.10;100.00
44926;BME280;30662;51.210;7.656;2023-02-01T00:38:41;149574.72;;;3.04;100.00
44926;BME280;30662;51.210;7.656;2023-02-01T00:41:11;149581.00;;;3.07;100.00
44926;BME280;30662;51.210;7.656;2023-02-01T00:43:38;149569.66;;;3.02;100.00
44926;BME280;30662;51.210;7.656;2023-02-01T00:46:04;149591.06;;;3.11;100.00
44926;BME280;30662;51.210;7.656;2023-02-01T00:48:30;149569.66;;;3.02;100.00
44926;BME280;30662;51.210;7.656;2023-02-01T00:51:01;149579.75;;;3.07;100.00
44926;BME280;30662;51.210;7.656;2023-02-01T00:53:27;149557.09;;;2.97;100.00
44926;BME280;30662;51.210;7.656;2023-02-01T00:55:53;149535.66;;;2.89;100.00
44926;BME280;30662;51.210;7.656;2023-02-01T00:58:19;149547.03;;;2.93;100.00
44926;BME280;30662;51.210;7.656;2023-02-01T01:00:45;149564.63;;;3.00;100.00
44926;BME280;30662;51.210;7.656;2023-02-01T01:03:12;149550.78;;;2.95;100.00
44926;BME280;30662;51.210;7.656;2023-02-01T01:05:45;149569.66;;;3.02;100.00
44926;BME280;30662;51.210;7.656;2023-02-01T01:08:11;149497.94;;;2.73;100.00
44926;BME280;30662;51.210;7.656;2023-02-01T01:10:37;149519.31;;;2.82;100.00
44926;BME280;30662;51.210;7.656;2023-02-01T01:13:03;149497.94;;;2.73;100.00
44926;BME280;30662;51.210;7.656;2023-02-01T01:15:30;149486.63;;;2.69;100.00
44926;BME280;30662;51.210;7.656;2023-02-01T01:17:56;149506.75;;;2.77;100.00
44926;BME280;30662;51.210;7.656;2023-02-01T01:20:22;149503.00;;;2.75;100.00
44926;BME280;30662;51.210;7.656;2023-02-01T01:22:48;149529.41;;;2.86;100.00
44926;BME280;30662;51.210;7.656;2023-02-01T01:25:14;149490.41;;;2.70;100.00
44926;BME280;30662;51.210;7.656;2023-02-01T01:27:40;149547.03;;;2.93;100.00
44926;BME280;30662;51.210;7.656;2023-02-01T01:30:07;149513.03;;;2.80;100.00
44926;BME280;30662;51.210;7.656;2023-02-01T01:32:33;149528.13;;;2.86;100.00
44926;BME280;30662;51.210;7.656;2023-02-01T01:34:59;149520.63;;;2.83;100.00
44926;BME280;30662;51.210;7.656;2023-02-01T01:37:25;149534.41;;;2.88;100.00
44926;BME280;30662;51.210;7.656;2023-02-01T01:39:51;149545.75;;;2.93;100.00
44926;BME280;30662;51.210;7.656;2023-02-01T01:42:17;149536.94;;;2.89;100.00
44926;BME280;30662;51.210;7.656;2023-02-01T01:45:04;149520.63;;;2.83;100.00
44926;BME280;30662;51.210;7.656;2023-02-01T01:47:34;149515.53;;;2.81;100.00
44926;BME280;30662;51.210;7.656;2023-02-01T01:50:03;149495.41;;;2.72;100.00
44926;BME280;30662;51.210;7.656;2023-02-01T01:52:30;149504.25;;;2.76;100.00
44926;BME280;30662;51.210;7.656;2023-02-01T01:54:57;149514.28;;;2.80;100.00
44926;BME280;30662;51.210;7.656;2023-02-01T01:57:27;149549.53;;;2.94;100.00
44926;BME280;30662;51.210;7.656;2023-02-01T02:00:15;149539.47;;;2.90;100.00
44926;BME280;30662;51.210;7.656;2023-02-01T02:02:45;149542.00;;;2.91;100.00
44926;BME280;30662;51.210;7.656;2023-02-01T02:05:12;149557.09;;;2.97;100.00
44926;BME280;30662;51.210;7.656;2023-02-01T02:07:43;149547.03;;;2.93;100.00
44926;BME280;30662;51.210;7.656;2023-02-01T02:10:13;149539.47;;;2.90;100.00
44926;BME280;30662;51.210;7.656;2023-02-01T02:12:40;149523.13;;;2.84;100.00
44926;BME280;30662;51.210;7.656;2023-02-01T02:15:12;149530.66;;;2.87;100.00
44926;BME280;30662;51.210;7.656;2023-02-01T02:17:59;149515.53;;;2.81;100.00
44926;BME280;30662;51.210;7.656;2023-02-01T02:26:42;149526.88;;;2.85;100.00
44926;BME280;30662;51.210;7.656;2023-02-01T02:34:57;149509.28;;;2.78;100.00
44926;BME280;30662;51.210;7.656;2023-02-01T02:37:37;149504.25;;;2.76;100.00
44926;BME280;30662;51.210;7.656;2023-02-01T02:40:55;149501.69;;;2.75;100.00
44926;BME280;30662;51.210;7.656;2023-02-01T02:46:08;149496.66;;;2.73;100.00
44926;BME280;30662;51.210;7.656;2023-02-01T02:49:12;149487.88;;;2.69;100.00
44926;BME280;30662;51.210;7.656;2023-02-01T02:51:49;149494.16;;;2.72;100.00
44926;BME280;30662;51.210;7.656;2023-02-01T02:54:38;149463.94;;;2.60;100.00
44926;BME280;30662;51.210;7.656;2023-02-01T02:57:59;149451.41;;;2.55;100.00
44926;BME280;30662;51.210;7.656;2023-02-01T03:00:19;149463.94;;;2.60;100.00
44926;BME280;30662;51.210;7.656;2023-02-01T03:03:04;149426.22;;;2.44;100.00
44926;BME280;30662;51.210;7.656;2023-02-01T03:05:50;149411.09;;;2.38;100.00
44926;BME280;30662;51.210;7.656;2023-02-01T03:08:18;149487.88;;;2.69;100.00
44926;BME280;30662;51.210;7.656;2023-02-01T03:10:55;149467.75;;;2.61;100.00
44926;BME280;30662;51.210;7.656;2023-02-01T03:16:15;149432.53;;;2.47;100.00
44926;BME280;30662;51.210;7.656;2023-02-01T03:18:48;149442.56;;;2.51;100.00
44926;BME280;30662;51.210;7.656;2023-02-01T03:21:21;149431.28;;;2.46;100.00
44926;BME280;30662;51.210;7.656;2023-02-01T03:23:49;149411.09;;;2.38;100.00
44926;BME280;30662;51.210;7.656;2023-02-01T03:26:18;149396.06;;;2.32;100.00
44926;BME280;30662;51.210;7.656;2023-02-01T03:28:54;149421.19;;;2.42;100.00
44926;BME280;30662;51.210;7.656;2023-02-01T03:31:22;149442.56;;;2.51;100.00
44926;BME280;30662;51.210;7.656;2023-02-01T03:33:49;149455.16;;;2.56;100.00
44926;BME280;30662;51.210;7.656;2023-02-01T03:36:20;149451.41;;;2.55;100.00
44926;BME280;30662;51.210;7.656;2023-02-01T03:39:13;149441.31;;;2.51;100.00
44926;BME280;30662;51.210;7.656;2023-02-01T03:41:45;149427.47;;;2.45;100.00
44926;BME280;30662;51.210;7.656;2023-02-01T03:44:25;149431.28;;;2.46;100.00
44926;BME280;30662;51.210;7.656;2023-02-01T03:46:56;149453.91;;;2.56;100.00
44926;BME280;30662;51.210;7.656;2023-02-01T03:49:27;149440.06;;;2.50;100.00
44926;BME280;30662;51.210;7.656;2023-02-01T03:51:55;149463.94;;;2.60;100.00
44926;BME280;30662;51.210;7.656;2023-02-01T03:54:23;149485.38;;;2.68;100.00
44926;BME280;30662;51.210;7.656;2023-02-01T03:56:52;149422.44;;;2.43;100.00
44926;BME280;30662;51.210;7.656;2023-02-01T03:59:19;149419.94;;;2.42;100.00
44926;BME280;30662;51.210;7.656;2023-02-01T04:01:45;149457.66;;;2.57;100.00
44926;BME280;30662;51.210;7.656;2023-02-01T04:04:11;149435.03;;;2.48;100.00
44926;BME280;30662;51.210;7.656;2023-02-01T04:06:49;149416.16;;;2.40;100.00
44926;BME280;30662;51.210;7.656;2023-02-01T04:09:16;149433.78;;;2.47;100.00
44926;BME280;30662;51.210;7.656;2023-02-01T04:11:42;149423.69;;;2.43;100.00
44926;BME280;30662;51.210;7.656;2023-02-01T04:14:09;149418.69;;;2.41;100.00
44926;BME280;30662;51.210;7.656;2023-02-01T04:16:35;149399.81;;;2.34;100.00
44926;BME280;30662;51.210;7.656;2023-02-01T04:19:01;149406.09;;;2.36;100.00
44926;BME280;30662;51.210;7.656;2023-02-01T04:21:28;149384.72;;;2.28;100.00
44926;BME280;30662;51.210;7.656;2023-02-01T04:23:54;149398.56;;;2.33;100.00
44926;BME280;30662;51.210;7.656;2023-02-01T04:26:20;149374.63;;;2.24;100.00
44926;BME280;30662;51.210;7.656;2023-02-01T04:28:47;149406.09;;;2.36;100.00
44926;BME280;30662;51.210;7.656;2023-02-01T04:31:14;149418.69;;;2.41;100.00
44926;BME280;30662;51.210;7.656;2023-02-01T04:33:40;149421.19;;;2.42;100.00
44926;BME280;30662;51.210;7.656;2023-02-01T04:36:06;149406.09;;;2.36;100.00
44926;BME280;30662;51.210;7.656;2023-02-01T04:38:32;149389.72;;;2.30;100.00
44926;BME280;30662;51.210;7.656;2023-02-01T04:40:59;149370.88;;;2.22;100.00
44926;BME280;30662;51.210;7.656;2023-02-01T04:43:25;149374.63;;;2.24;100.00
44926;BME280;30662;51.210;7.656;2023-02-01T04:45:51;149388.47;;;2.29;100.00
44926;BME280;30662;51.210;7.656;2023-02-01T04:48:18;149368.34;;;2.21;100.00
44926;BME280;30662;51.210;7.656;2023-02-01T04:50:48;149353.25;;;2.15;100.00
44926;BME280;30662;51.210;7.656;2023-02-01T04:53:15;149336.91;;;2.08;100.00
44926;BME280;30662;51.210;7.656;2023-02-01T04:55:41;149348.22;;;2.13;100.00
44926;BME280;30662;51.210;7.656;2023-02-01T04:58:08;149363.34;;;2.19;100.00
44926;BME280;30662;51.210;7.656;2023-02-01T05:00:34;149359.56;;;2.17;100.00
44926;BME280;30662;51.210;7.656;2023-02-01T05:03:00;149373.38;;;2.23;100.00
44926;BME280;30662;51.210;7.656;2023-02-01T05:05:27;149370.88;;;2.22;100.00
44926;BME280;30662;51.210;7.656;2023-02-01T05:07:53;149380.94;;;2.26;100.00
44926;BME280;30662;51.210;7.656;2023-02-01T05:10:20;149401.06;;;2.34;100.00
44926;BME280;30662;51.210;7.656;2023-02-01T05:12:47;149414.91;;;2.40;100.00
44926;BME280;30662;51.210;7.656;2023-02-01T05:15:31;149407.34;;;2.37;100.00
44926;BME280;30662;51.210;7.656;2023-02-01T05:17:58;149451.41;;;2.55;100.00
44926;BME280;30662;51.210;7.656;2023-02-01T05:20:24;149445.06;;;2.52;100.00
44926;BME280;30662;51.210;7.656;2023-02-01T05:22:50;149428.72;;;2.45;100.00
44926;BME280;30662;51.210;7.656;2023-02-01T05:25:17;149463.94;;;2.60;100.00
44926;BME280;30662;51.210;7.656;2023-02-01T05:27:43;149438.81;;;2.49;100.00
44926;BME280;30662;51.210;7.656;2023-02-01T05:30:09;149427.47;;;2.45;100.00
44926;BME280;30662;51.210;7.656;2023-02-01T05:32:35;149389.72;;;2.30;100.00
44926;BME280;30662;51.210;7.656;2023-02-01T05:35:01;149437.53;;;2.49;100.00
44926;BME280;30662;51.210;7.656;2023-02-01T05:37:27;149411.09;;;2.38;100.00
44926;BME280;30662;51.210;7.656;2023-02-01T05:39:53;149423.69;;;2.43;100.00
44926;BME280;30662;51.210;7.656;2023-02-01T05:42:19;149443.81;;;2.52;100.00
44926;BME280;30662;51.210;7.656;2023-02-01T05:44:45;149463.94;;;2.60;100.00
44926;BME280;30662;51.210;7.656;2023-02-01T05:47:11;149401.06;;;2.34;100.00
44926;BME280;30662;51.210;7.656;2023-02-01T05:49:38;149466.50;;;2.61;100.00
44926;BME280;30662;51.210;7.656;2023-02-01T05:52:04;149411.09;;;2.38;100.00
44926;BME280;30662;51.210;7.656;2023-02-01T05:54:30;149417.44;;;2.41;100.00
44926;BME280;30662;51.210;7.656;2023-02-01T05:56:56;149441.31;;;2.51;100.00
44926;BME280;30662;51.210;7.656;2023-02-01T05:59:22;149447.59;;;2.53;100.00
44926;BME280;30662;51.210;7.656;2023-02-01T06:01:48;149461.44;;;2.59;100.00
44926;BME280;30662;51.210;7.656;2023-02-01T06:04:14;149458.94;;;2.58;100.00
44926;BME280;30662;51.210;7.656;2023-02-01T06:06:40;149446.34;;;2.53;100.00
44926;BME280;30662;51.210;7.656;2023-02-01T06:09:05;149455.16;;;2.56;100.00
44926;BME280;30662;51.210;7.656;2023-02-01T06:11:31;149463.94;;;2.60;100.00
44926;BME280;30662;51.210;7.656;2023-02-01T06:13:59;149452.66;;;2.55;100.00
44926;BME280;30662;51.210;7.656;2023-02-01T06:16:25;149458.94;;;2.58;100.00
44926;BME280;30662;51.210;7.656;2023-02-01T06:18:51;149458.94;;;2.58;100.00
44926;BME280;30662;51.210;7.656;2023-02-01T06:21:17;149469.00;;;2.62;100.00
44926;BME280;30662;51.210;7.656;2023-02-01T06:23:53;149431.28;;;2.46;100.00
44926;BME280;30662;51.210;7.656;2023-02-01T06:26:19;149436.28;;;2.48;100.00
44926;BME280;30662;51.210;7.656;2023-02-01T06:28:46;149461.44;;;2.59;100.00
44926;BME280;30662;51.210;7.656;2023-02-01T06:31:12;149452.66;;;2.55;100.00
44926;BME280;30662;51.210;7.656;2023-02-01T06:33:38;149451.41;;;2.55;100.00
44926;BME280;30662;51.210;7.656;2023-02-01T06:36:05;149460.19;;;2.58;100.00
44926;BME280;30662;51.210;7.656;2023-02-01T06:38:32;149445.06;;;2.52;100.00
44926;BME280;30662;51.210;7.656;2023-02-01T06:41:02;149487.88;;;2.69;100.00
44926;BME280;30662;51.210;7.656;2023-02-01T06:43:29;149458.94;;;2.58;100.00
44926;BME280;30662;51.210;7.656;2023-02-01T06:46:03;149447.59;;;2.53;100.00
44926;BME280;30662;51.210;7.656;2023-02-01T06:48:30;149452.66;;;2.55;100.00
44926;BME280;30662;51.210;7.656;2023-02-01T06:50:56;149462.69;;;2.59;100.00
44926;BME280;30662;51.210;7.656;2023-02-01T06:53:22;149453.91;;;2.56;100.00
44926;BME280;30662;51.210;7.656;2023-02-01T06:56:08;149438.81;;;2.49;100.00
44926;BME280;30662;51.210;7.656;2023-02-01T06:58:34;149447.59;;;2.53;100.00
44926;BME280;30662;51.210;7.656;2023-02-01T07:01:08;149452.66;;;2.55;100.00
44926;BME280;30662;51.210;7.656;2023-02-01T07:03:34;149442.56;;;2.51;100.00
44926;BME280;30662;51.210;7.656;2023-02-01T07:06:01;149441.31;;;2.51;100.00
44926;BME280;30662;51.210;7.656;2023-02-01T07:08:28;149416.16;;;2.40;100.00
44926;BME280;30662;51.210;7.656;2023-02-01T07:10:54;149429.97;;;2.46;100.00
44926;BME280;30662;51.210;7.656;2023-02-01T07:13:20;149435.03;;;2.48;100.00
44926;BME280;30662;51.210;7.656;2023-02-01T07:15:46;149453.91;;;2.56;100.00
44926;BME280;30662;51.210;7.656;2023-02-01T07:18:15;149409.84;;;2.38;100.00
44926;BME280;30662;51.210;7.656;2023-02-01T07:20:41;149422.44;;;2.43;100.00
44926;BME280;30662;51.210;7.656;2023-02-01T07:23:10;149429.97;;;2.46;100.00
44926;BME280;30662;51.210;7.656;2023-02-01T07:25:36;149438.81;;;2.49;100.00
44926;BME280;30662;51.210;7.656;2023-02-01T07:28:02;149432.53;;;2.47;100.00
44926;BME280;30662;51.210;7.656;2023-02-01T07:30:28;149418.69;;;2.41;100.00
44926;BME280;30662;51.210;7.656;2023-02-01T07:32:54;149455.16;;;2.56;100.00
44926;BME280;30662;51.210;7.656;2023-02-01T07:35:20;149463.94;;;2.60;100.00
44926;BME280;30662;51.210;7.656;2023-02-01T07:37:46;149450.16;;;2.54;100.00
44926;BME280;30662;51.210;7.656;2023-02-01T07:40:12;149443.81;;;2.52;100.00
44926;BME280;30662;51.210;7.656;2023-02-01T07:42:38;149455.16;;;2.56;100.00
44926;BME280;30662;51.210;7.656;2023-02-01T07:45:04;149441.31;;;2.51;100.00
44926;BME280;30662;51.210;7.656;2023-02-01T07:47:46;149419.94;;;2.42;100.00
44926;BME280;30662;51.210;7.656;2023-02-01T07:50:12;149427.47;;;2.45;100.00
44926;BME280;30662;51.210;7.656;2023-02-01T07:52:38;149445.06;;;2.52;100.00
44926;BME280;30662;51.210;7.656;2023-02-01T07:55:06;149407.34;;;2.37;100.00
44926;BME280;30662;51.210;7.656;2023-02-01T07:57:32;149446.34;;;2.53;100.00
44926;BME280;30662;51.210;7.656;2023-02-01T07:59:58;149451.41;;;2.55;100.00
44926;BME280;30662;51.210;7.656;2023-02-01T08:02:42;149446.34;;;2.53;100.00
44926;BME280;30662;51.210;7.656;2023-02-01T08:05:08;149443.81;;;2.52;100.00
44926;BME280;30662;51.210;7.656;2023-02-01T08:07:34;149448.88;;;2.54;100.00
44926;BME280;30662;51.210;7.656;2023-02-01T08:10:00;149452.66;;;2.55;100.00
44926;BME280;30662;51.210;7.656;2023-02-01T08:12:26;149442.56;;;2.51;100.00
44926;BME280;30662;51.210;7.656;2023-02-01T08:14:53;149451.41;;;2.55;100.00
44926;BME280;30662;51.210;7.656;2023-02-01T08:17:20;149413.66;;;2.39;100.00
44926;BME280;30662;51.210;7.656;2023-02-01T08:19:46;149408.59;;;2.37;100.00
44926;BME280;30662;51.210;7.656;2023-02-01T08:22:11;149413.66;;;2.39;100.00
44926;BME280;30662;51.210;7.656;2023-02-01T08:24:37;149398.56;;;2.33;100.00
44926;BME280;30662;51.210;7.656;2023-02-01T08:27:07;149436.28;;;2.48;100.00
44926;BME280;30662;51.210;7.656;2023-02-01T08:29:33;149440.06;;;2.50;100.00
44926;BME280;30662;51.210;7.656;2023-02-01T08:31:59;149443.81;;;2.52;100.00
44926;BME280;30662;51.210;7.656;2023-02-01T08:34:25;149424.94;;;2.44;100.00
44926;BME280;30662;51.210;7.656;2023-02-01T08:36:52;149481.56;;;2.67;100.00
44926;BME280;30662;51.210;7.656;2023-02-01T08:39:22;149458.94;;;2.58;100.00
44926;BME280;30662;51.210;7.656;2023-02-01T08:41:49;149455.16;;;2.56;100.00
44926;BME280;30662;51.210;7.656;2023-02-01T08:44:34;149470.28;;;2.62;100.00
44926;BME280;30662;51.210;7.656;2023-02-01T08:47:01;149461.44;;;2.59;100.00
44926;BME280;30662;51.210;7.656;2023-02-01T08:49:27;149448.88;;;2.54;100.00
44926;BME280;30662;51.210;7.656;2023-02-01T08:51:53;149475.28;;;2.64;100.00
44926;BME280;30662;51.210;7.656;2023-02-01T08:54:23;149458.94;;;2.58;100.00
44926;BME280;30662;51.210;7.656;2023-02-01T08:56:49;149475.28;;;2.64;100.00
44926;BME280;30662;51.210;7.656;2023-02-01T08:59:15;149423.69;;;2.43;100.00
44926;BME280;30662;51.210;7.656;2023-02-01T09:01:41;149448.88;;;2.54;100.00
44926;BME280;30662;51.210;7.656;2023-02-01T09:04:08;149429.97;;;2.46;100.00
44926;BME280;30662;51.210;7.656;2023-02-01T09:06:34;149440.06;;;2.50;100.00
44926;BME280;30662;51.210;7.656;2023-02-01T09:09:00;149451.41;;;2.55;100.00
44926;BME280;30662;51.210;7.656;2023-02-01T09:11:26;149479.06;;;2.66;100.00
44926;BME280;30662;51.210;7.656;2023-02-01T09:13:52;149458.94;;;2.58;100.00
44926;BME280;30662;51.210;7.656;2023-02-01T09:16:18;149494.16;;;2.72;100.00
44926;BME280;30662;51.210;7.656;2023-02-01T09:18:44;149492.91;;;2.71;100.00
44926;BME280;30662;51.210;7.656;2023-02-01T09:21:27;149569.66;;;3.02;100.00
44926;BME280;30662;51.210;7.656;2023-02-01T09:23:53;149510.53;;;2.79;100.00
44926;BME280;30662;51.210;7.656;2023-02-01T09:26:19;149535.66;;;2.89;100.00
44926;BME280;30662;51.210;7.656;2023-02-01T09:28:56;149513.03;;;2.80;100.00
44926;BME280;30662;51.210;7.656;2023-02-01T09:31:22;149492.91;;;2.71;100.00
44926;BME280;30662;51.210;7.656;2023-02-01T09:33:48;149508.00;;;2.78;100.00
44926;BME280;30662;51.210;7.656;2023-02-01T09:36:14;149508.00;;;2.78;100.00
44926;BME280;30662;51.210;7.656;2023-02-01T09:38:40;149501.69;;;2.75;100.00
44926;BME280;30662;51.210;7.656;2023-02-01T09:41:30;149452.66;;;2.55;100.00
44926;BME280;30662;51.210;7.656;2023-02-01T09:47:14;149461.44;;;2.59;100.00
44926;BME280;30662;51.210;7.656;2023-02-01T09:52:17;149476.53;;;2.65;100.00
44926;BME280;30662;51.210;7.656;2023-02-01T09:54:58;149500.44;;;2.74;100.00
44926;BME280;30662;51.210;7.656;2023-02-01T10:00:38;149521.88;;;2.83;100.00
44926;BME280;30662;51.210;7.656;2023-02-01T10:03:05;149513.03;;;2.80;100.00
44926;BME280;30662;51.210;7.656;2023-02-01T10:08:38;149482.81;;;2.67;100.00
44926;BME280;30662;51.210;7.656;2023-02-01T10:19:56;149443.81;;;2.52;100.00
44926;BME280;30662;51.210;7.656;2023-02-01T10:28:17;149393.50;;;2.31;100.00
44926;BME280;30662;51.210;7.656;2023-02-01T10:30:46;149392.25;;;2.31;100.00
44926;BME280;30662;51.210;7.656;2023-02-01T10:33:18;149406.09;;;2.36;100.00
44926;BME280;30662;51.210;7.656;2023-02-01T10:35:53;149417.44;;;2.41;100.00
44926;BME280;30662;51.210;7.656;2023-02-01T10:38:26;149399.81;;;2.34;100.00
44926;BME280;30662;51.210;7.656;2023-02-01T10:40:55;149418.69;;;2.41;100.00
44926;BME280;30662;51.210;7.656;2023-02-01T10:43:24;149401.06;;;2.34;100.00
44926;BME280;30662;51.210;7.656;2023-02-01T10:45:51;149388.47;;;2.29;100.00
44926;BME280;30662;51.210;7.656;2023-02-01T10:48:17;149408.59;;;2.37;100.00
44926;BME280;30662;51.210;7.656;2023-02-01T10:50:52;149442.56;;;2.51;100.00
44926;BME280;30662;51.210;7.656;2023-02-01T10:55:57;149427.47;;;2.45;100.00
44926;BME280;30662;51.210;7.656;2023-02-01T10:58:32;149411.09;;;2.38;100.00
44926;BME280;30662;51.210;7.656;2023-02-01T11:01:06;149409.84;;;2.38;100.00
44926;BME280;30662;51.210;7.656;2023-02-01T11:03:50;149396.06;;;2.32;100.00
44926;BME280;30662;51.210;7.656;2023-02-01T11:08:55;149424.94;;;2.44;100.00
44926;BME280;30662;51.210;7.656;2023-02-01T11:11:22;149428.72;;;2.45;100.00
44926;BME280;30662;51.210;7.656;2023-02-01T11:14:00;149412.34;;;2.39;100.00
44926;BME280;30662;51.210;7.656;2023-02-01T11:16:36;149402.31;;;2.35;100.00
44926;BME280;30662;51.210;7.656;2023-02-01T11:19:03;149422.44;;;2.43;100.00
44926;BME280;30662;51.210;7.656;2023-02-01T11:21:29;149407.34;;;2.37;100.00
44926;BME280;30662;51.210;7.656;2023-02-01T11:24:00;149413.66;;;2.39;100.00
44926;BME280;30662;51.210;7.656;2023-02-01T11:26:27;149438.81;;;2.49;100.00
44926;BME280;30662;51.210;7.656;2023-02-01T11:29:03;149437.53;;;2.49;100.00
44926;BME280;30662;51.210;7.656;2023-02-01T11:31:30;149426.22;;;2.44;100.00
44926;BME280;30662;51.210;7.656;2023-02-01T11:34:03;149450.16;;;2.54;100.00
44926;BME280;30662;51.210;7.656;2023-02-01T11:36:32;149456.41;;;2.57;100.00
44926;BME280;30662;51.210;7.656;2023-02-01T11:42:24;149466.50;;;2.61;100.00
44926;BME280;30662;51.210;7.656;2023-02-01T11:47:27;149450.16;;;2.54;100.00
44926;BME280;30662;51.210;7.656;2023-02-01T11:49:59;149426.22;;;2.44;100.00
44926;BME280;30662;51.210;7.656;2023-02-01T11:53:13;149422.44;;;2.43;100.00
44926;BME280;30662;51.210;7.656;2023-02-01T11:55:42;149435.03;;;2.48;100.00
44926;BME280;30662;51.210;7.656;2023-02-01T11:58:42;149440.06;;;2.50;100.00
44926;BME280;30662;51.210;7.656;2023-02-01T12:04:20;149446.34;;;2.53;100.00
44926;BME280;30662;51.210;7.656;2023-02-01T12:06:57;149462.69;;;2.59;100.00
44926;BME280;30662;51.210;7.656;2023-02-01T12:09:34;149491.66;;;2.71;100.00
44926;BME280;30662;51.210;7.656;2023-02-01T12:12:24;149469.00;;;2.62;100.00
44926;BME280;30662;51.210;7.656;2023-02-01T12:20:48;149461.44;;;2.59;100.00
44926;BME280;30662;51.210;7.656;2023-02-01T12:26:47;149515.53;;;2.81;100.00
44926;BME280;30662;51.210;7.656;2023-02-01T12:42:22;149448.88;;;2.54;100.00
44926;BME280;30662;51.210;7.656;2023-02-01T12:44:53;149435.03;;;2.48;100.00
44926;BME280;30662;51.210;7.656;2023-02-01T12:50:05;149408.59;;;2.37;100.00
44926;BME280;30662;51.210;7.656;2023-02-01T12:52:45;149440.06;;;2.50;100.00
44926;BME280;30662;51.210;7.656;2023-02-01T12:55:32;149431.28;;;2.46;100.00
44926;BME280;30662;51.210;7.656;2023-02-01T12:58:31;149418.69;;;2.41;100.00
44926;BME280;30662;51.210;7.656;2023-02-01T13:01:06;149458.94;;;2.58;100.00
44926;BME280;30662;51.210;7.656;2023-02-01T13:03:53;149432.53;;;2.47;100.00
44926;BME280;30662;51.210;7.656;2023-02-01T13:06:27;149462.69;;;2.59;100.00
44926;BME280;30662;51.210;7.656;2023-02-01T13:11:45;149486.63;;;2.69;100.00
44926;BME280;30662;51.210;7.656;2023-02-01T13:17:18;149494.16;;;2.72;100.00
44926;BME280;30662;51.210;7.656;2023-02-01T13:20:09;149496.66;;;2.73;100.00
44926;BME280;30662;51.210;7.656;2023-02-01T13:22:44;149477.78;;;2.65;100.00
44926;BME280;30662;51.210;7.656;2023-02-01T13:25:15;149482.81;;;2.67;100.00
44926;BME280;30662;51.210;7.656;2023-02-01T13:27:42;149477.78;;;2.65;100.00
44926;BME280;30662;51.210;7.656;2023-02-01T13:36:10;149457.66;;;2.57;100.00
44926;BME280;30662;51.210;7.656;2023-02-01T13:44:26;149442.56;;;2.51;100.00
44926;BME280;30662;51.210;7.656;2023-02-01T13:46:58;149485.38;;;2.68;100.00
44926;BME280;30662;51.210;7.656;2023-02-01T13:49:28;149479.06;;;2.66;100.00
44926;BME280;30662;51.210;7.656;2023-02-01T13:51:57;149480.31;;;2.66;100.00
44926;BME280;30662;51.210;7.656;2023-02-01T13:56:53;149469.00;;;2.62;100.00
44926;BME280;30662;51.210;7.656;2023-02-01T14:05:12;149469.00;;;2.62;100.00
44926;BME280;30662;51.210;7.656;2023-02-01T14:10:54;149475.28;;;2.64;100.00
44926;BME280;30662;51.210;7.656;2023-02-01T14:13:37;149506.75;;;2.77;100.00
44926;BME280;30662;51.210;7.656;2023-02-01T14:21:22;149510.53;;;2.79;100.00
44926;BME280;30662;51.210;7.656;2023-02-01T14:26:27;149469.00;;;2.62;100.00
44926;BME280;30662;51.210;7.656;2023-02-01T14:29:35;149471.53;;;2.63;100.00
44926;BME280;30662;51.210;7.656;2023-02-01T14:32:05;149509.28;;;2.78;100.00
44926;BME280;30662;51.210;7.656;2023-02-01T14:37:04;149515.53;;;2.81;100.00
44926;BME280;30662;51.210;7.656;2023-02-01T14:39:35;149529.41;;;2.86;100.00
44926;BME280;30662;51.210;7.656;2023-02-01T14:44:42;149506.75;;;2.77;100.00
44926;BME280;30662;51.210;7.656;2023-02-01T14:47:27;149505.50;;;2.76;100.00
44926;BME280;30662;51.210;7.656;2023-02-01T14:52:33;149536.94;;;2.89;100.00
44926;BME280;30662;51.210;7.656;2023-02-01T14:55:05;149504.25;;;2.76;100.00
44926;BME280;30662;51.210;7.656;2023-02-01T14:57:35;149505.50;;;2.76;100.00
44926;BME280;30662;51.210;7.656;2023-02-01T15:00:25;149526.88;;;2.85;100.00
44926;BME280;30662;51.210;7.656;2023-02-01T15:02:52;149516.81;;;2.81;100.00
44926;BME280;30662;51.210;7.656;2023-02-01T15:05:39;149526.88;;;2.85;100.00
44926;BME280;30662;51.210;7.656;2023-02-01T15:08:19;149542.00;;;2.91;100.00
44926;BME280;30662;51.210;7.656;2023-02-01T15:10:49;149554.56;;;2.96;100.00
44926;BME280;30662;51.210;7.656;2023-02-01T15:13:25;149540.75;;;2.91;100.00
44926;BME280;30662;51.210;7.656;2023-02-01T15:16:10;149526.88;;;2.85;100.00